sensor_id;sensor_type;location;lat;lon;timestamp;P1;durP1;ratioP1;P2;durP2;ratioP2
9186;SDS011;7273;48.902;9.410;2024-03-08T00:00:13;3.30;;;1.30;;
9186;SDS011;7273;48.902;9.410;2024-03-08T00:02:43;4.10;;;0.77;;
9186;SDS011;7273;48.902;9.410;2024-03-08T00:05:09;5.03;;;1.52;;
9186;SDS011;7273;48.902;9.410;2024-03-08T00:07:35;0.10;;;0.10;;
9186;SDS011;7273;48.902;9.410;2024-03-08T00:10:02;3.17;;;1.15;;
9186;SDS011;7273;48.902;9.410;2024-03-08T00:12:29;0.45;;;0.30;;
9186;SDS011;7273;48.902;9.410;2024-03-08T00:14:55;1.08;;;0.90;;
9186;SDS011;7273;48.902;9.410;2024-03-08T00:17:21;3.00;;;0.75;;
9186;SDS011;7273;48.902;9.410;2024-03-08T00:19:52;0.73;;;0.68;;
9186;SDS011;7273;48.902;9.410;2024-03-08T00:22:18;2.85;;;1.30;;
9186;SDS011;7273;48.902;9.410;2024-03-08T00:24:44;3.15;;;1.98;;
9186;SDS011;7273;48.902;9.410;2024-03-08T00:27:10;5.75;;;1.42;;
9186;SDS011;7273;48.902;9.410;2024-03-08T00:29:36;6.45;;;1.45;;
9186;SDS011;7273;48.902;9.410;2024-03-08T00:32:05;1.00;;;0.50;;
9186;SDS011;7273;48.902;9.410;2024-03-08T00:34:33;1.63;;;0.25;;
9186;SDS011;7273;48.902;9.410;2024-03-08T00:37:02;1.60;;;1.27;;
9186;SDS011;7273;48.902;9.410;2024-03-08T00:39:28;3.50;;;1.80;;
9186;SDS011;7273;48.902;9.410;2024-03-08T00:41:54;10.68;;;1.08;;
9186;SDS011;7273;48.902;9.410;2024-03-08T00:44:19;5.03;;;1.08;;
9186;SDS011;7273;48.902;9.410;2024-03-08T00:46:45;2.30;;;1.10;;
9186;SDS011;7273;48.902;9.410;2024-03-08T00:49:11;4.13;;;1.63;;
9186;SDS011;7273;48.902;9.410;2024-03-08T00:51:37;1.10;;;0.47;;
9186;SDS011;7273;48.902;9.410;2024-03-08T00:54:03;4.13;;;1.27;;
9186;SDS011;7273;48.902;9.410;2024-03-08T00:56:29;3.38;;;1.15;;
9186;SDS011;7273;48.902;9.410;2024-03-08T00:58:55;1.58;;;0.80;;
9186;SDS011;7273;48.902;9.410;2024-03-08T01:01:21;1.15;;;1.05;;
9186;SDS011;7273;48.902;9.410;2024-03-08T01:03:47;3.92;;;0.88;;
9186;SDS011;7273;48.902;9.410;2024-03-08T01:06:14;4.05;;;1.40;;
9186;SDS011;7273;48.902;9.410;2024-03-08T01:08:40;1.95;;;1.45;;
9186;SDS011;7273;48.902;9.410;2024-03-08T01:11:07;1.35;;;0.90;;
9186;SDS011;7273;48.902;9.410;2024-03-08T01:13:34;0.65;;;0.47;;
9186;SDS011;7273;48.902;9.410;2024-03-08T01:16:01;1.13;;;0.77;;
9186;SDS011;7273;48.902;9.410;2024-03-08T01:18:26;1.42;;;1.33;;
9186;SDS011;7273;48.902;9.410;2024-03-08T01:20:52;2.58;;;0.60;;
9186;SDS011;7273;48.902;9.410;2024-03-08T01:23:17;2.50;;;1.95;;
9186;SDS011;7273;48.902;9.410;2024-03-08T01:25:43;7.57;;;1.48;;
9186;SDS011;7273;48.902;9.410;2024-03-08T01:28:09;2.10;;;0.40;;
9186;SDS011;7273;48.902;9.410;2024-03-08T01:30:34;2.80;;;1.52;;
9186;SDS011;7273;48.902;9.410;2024-03-08T01:33:02;0.60;;;0.60;;
9186;SDS011;7273;48.902;9.410;2024-03-08T01:35:28;8.65;;;1.20;;
9186;SDS011;7273;48.902;9.410;2024-03-08T01:37:54;1.63;;;0.80;;
9186;SDS011;7273;48.902;9.410;2024-03-08T01:40:20;3.33;;;0.70;;
9186;SDS011;7273;48.902;9.410;2024-03-08T01:42:46;1.17;;;1.00;;
9186;SDS011;7273;48.902;9.410;2024-03-08T01:45:13;1.77;;;1.15;;
9186;SDS011;7273;48.902;9.410;2024-03-08T01:47:38;0.55;;;0.32;;
9186;SDS011;7273;48.902;9.410;2024-03-08T01:50:04;1.25;;;0.55;;
9186;SDS011;7273;48.902;9.410;2024-03-08T01:52:34;1.17;;;1.08;;
9186;SDS011;7273;48.902;9.410;2024-03-08T01:55:01;0.57;;;0.30;;
9186;SDS011;7273;48.902;9.410;2024-03-08T01:57:29;5.55;;;0.85;;
9186;SDS011;7273;48.902;9.410;2024-03-08T01:59:59;2.20;;;0.55;;
9186;SDS011;7273;48.902;9.410;2024-03-08T02:02:27;0.98;;;0.70;;
9186;SDS011;7273;48.902;9.410;2024-03-08T02:04:53;1.35;;;0.50;;
9186;SDS011;7273;48.902;9.410;2024-03-08T02:07:19;2.50;;;0.77;;
9186;SDS011;7273;48.902;9.410;2024-03-08T02:09:44;0.10;;;0.10;;
9186;SDS011;7273;48.902;9.410;2024-03-08T02:12:09;2.13;;;1.08;;
9186;SDS011;7273;48.902;9.410;2024-03-08T02:14:35;0.80;;;0.65;;
9186;SDS011;7273;48.902;9.410;2024-03-08T02:17:01;2.15;;;0.50;;
9186;SDS011;7273;48.902;9.410;2024-03-08T02:19:27;2.05;;;1.23;;
9186;SDS011;7273;48.902;9.410;2024-03-08T02:21:53;5.50;;;1.15;;
9186;SDS011;7273;48.902;9.410;2024-03-08T02:24:20;0.00;;;0.00;;
9186;SDS011;7273;48.902;9.410;2024-03-08T02:26:46;0.73;;;0.40;;
9186;SDS011;7273;48.902;9.410;2024-03-08T02:29:11;0.90;;;0.88;;
9186;SDS011;7273;48.902;9.410;2024-03-08T02:31:39;4.57;;;1.25;;
9186;SDS011;7273;48.902;9.410;2024-03-08T02:34:05;1.90;;;1.33;;
9186;SDS011;7273;48.902;9.410;2024-03-08T02:36:30;0.77;;;0.45;;
9186;SDS011;7273;48.902;9.410;2024-03-08T02:38:59;16.17;;;2.30;;
9186;SDS011;7273;48.902;9.410;2024-03-08T02:41:26;4.78;;;0.93;;
9186;SDS011;7273;48.902;9.410;2024-03-08T02:43:52;1.90;;;0.50;;
9186;SDS011;7273;48.902;9.410;2024-03-08T02:46:17;3.92;;;1.00;;
9186;SDS011;7273;48.902;9.410;2024-03-08T02:48:43;1.57;;;0.67;;
9186;SDS011;7273;48.902;9.410;2024-03-08T02:51:08;3.40;;;1.45;;
9186;SDS011;7273;48.902;9.410;2024-03-08T02:53:35;1.25;;;1.15;;
9186;SDS011;7273;48.902;9.410;2024-03-08T02:56:01;1.95;;;0.68;;
9186;SDS011;7273;48.902;9.410;2024-03-08T02:58:26;0.93;;;0.63;;
9186;SDS011;7273;48.902;9.410;2024-03-08T03:00:52;1.67;;;1.10;;
9186;SDS011;7273;48.902;9.410;2024-03-08T03:03:17;0.40;;;0.32;;
9186;SDS011;7273;48.902;9.410;2024-03-08T03:05:42;2.42;;;1.05;;
9186;SDS011;7273;48.902;9.410;2024-03-08T03:08:09;0.55;;;0.55;;
9186;SDS011;7273;48.902;9.410;2024-03-08T03:10:35;1.60;;;0.82;;
9186;SDS011;7273;48.902;9.410;2024-03-08T03:13:01;0.68;;;0.57;;
9186;SDS011;7273;48.902;9.410;2024-03-08T03:15:26;0.32;;;0.32;;
9186;SDS011;7273;48.902;9.410;2024-03-08T03:17:51;1.80;;;0.95;;
9186;SDS011;7273;48.902;9.410;2024-03-08T03:20:17;0.00;;;0.00;;
9186;SDS011;7273;48.902;9.410;2024-03-08T03:22:50;2.60;;;0.93;;
9186;SDS011;7273;48.902;9.410;2024-03-08T03:25:20;0.52;;;0.43;;
9186;SDS011;7273;48.902;9.410;2024-03-08T03:27:50;0.40;;;0.40;;
9186;SDS011;7273;48.902;9.410;2024-03-08T03:30:21;0.55;;;0.32;;
9186;SDS011;7273;48.902;9.410;2024-03-08T03:32:50;0.00;;;0.00;;
9186;SDS011;7273;48.902;9.410;2024-03-08T03:35:16;1.90;;;1.15;;
9186;SDS011;7273;48.902;9.410;2024-03-08T03:37:42;3.45;;;1.60;;
9186;SDS011;7273;48.902;9.410;2024-03-08T03:40:16;0.82;;;0.38;;
9186;SDS011;7273;48.902;9.410;2024-03-08T03:42:43;1.08;;;0.95;;
9186;SDS011;7273;48.902;9.410;2024-03-08T03:45:10;0.80;;;0.80;;
9186;SDS011;7273;48.902;9.410;2024-03-08T03:47:36;1.35;;;1.25;;
9186;SDS011;7273;48.902;9.410;2024-03-08T03:50:03;2.72;;;1.75;;
9186;SDS011;7273;48.902;9.410;2024-03-08T03:52:29;3.88;;;1.40;;
9186;SDS011;7273;48.902;9.410;2024-03-08T03:54:55;0.50;;;0.37;;
9186;SDS011;7273;48.902;9.410;2024-03-08T03:57:21;5.10;;;1.30;;
9186;SDS011;7273;48.902;9.410;2024-03-08T03:59:48;1.35;;;0.75;;
9186;SDS011;7273;48.902;9.410;2024-03-08T04:02:13;1.10;;;0.55;;
9186;SDS011;7273;48.902;9.410;2024-03-08T04:04:39;1.85;;;0.70;;
9186;SDS011;7273;48.902;9.410;2024-03-08T04:07:05;0.77;;;0.52;;
9186;SDS011;7273;48.902;9.410;2024-03-08T04:09:30;2.40;;;0.93;;
9186;SDS011;7273;48.902;9.410;2024-03-08T04:11:56;1.08;;;0.75;;
9186;SDS011;7273;48.902;9.410;2024-03-08T04:14:22;1.00;;;0.77;;
9186;SDS011;7273;48.902;9.410;2024-03-08T04:16:48;1.10;;;0.47;;
9186;SDS011;7273;48.902;9.410;2024-03-08T04:19:13;1.90;;;0.97;;
9186;SDS011;7273;48.902;9.410;2024-03-08T04:21:39;0.25;;;0.17;;
9186;SDS011;7273;48.902;9.410;2024-03-08T04:24:04;2.75;;;1.27;;
9186;SDS011;7273;48.902;9.410;2024-03-08T04:26:30;4.57;;;1.85;;
9186;SDS011;7273;48.902;9.410;2024-03-08T04:28:56;0.63;;;0.38;;
9186;SDS011;7273;48.902;9.410;2024-03-08T04:31:22;2.60;;;1.38;;
9186;SDS011;7273;48.902;9.410;2024-03-08T04:33:47;1.60;;;1.03;;
9186;SDS011;7273;48.902;9.410;2024-03-08T04:36:13;1.25;;;1.15;;
9186;SDS011;7273;48.902;9.410;2024-03-08T04:38:38;2.78;;;0.80;;
9186;SDS011;7273;48.902;9.410;2024-03-08T04:41:06;0.60;;;0.55;;
9186;SDS011;7273;48.902;9.410;2024-03-08T04:43:31;2.42;;;0.85;;
9186;SDS011;7273;48.902;9.410;2024-03-08T04:45:57;2.65;;;1.70;;
9186;SDS011;7273;48.902;9.410;2024-03-08T04:48:23;1.23;;;0.90;;
9186;SDS011;7273;48.902;9.410;2024-03-08T04:50:48;5.40;;;0.40;;
9186;SDS011;7273;48.902;9.410;2024-03-08T04:53:14;1.92;;;1.25;;
9186;SDS011;7273;48.902;9.410;2024-03-08T04:55:39;0.68;;;0.32;;
9186;SDS011;7273;48.902;9.410;2024-03-08T04:58:05;6.68;;;0.57;;
9186;SDS011;7273;48.902;9.410;2024-03-08T05:00:33;4.07;;;0.80;;
9186;SDS011;7273;48.902;9.410;2024-03-08T05:02:58;0.63;;;0.40;;
9186;SDS011;7273;48.902;9.410;2024-03-08T05:05:24;1.55;;;0.98;;
9186;SDS011;7273;48.902;9.410;2024-03-08T05:07:49;2.60;;;1.27;;
9186;SDS011;7273;48.902;9.410;2024-03-08T05:10:15;0.55;;;0.52;;
9186;SDS011;7273;48.902;9.410;2024-03-08T05:12:42;1.52;;;1.42;;
9186;SDS011;7273;48.902;9.410;2024-03-08T05:15:08;0.45;;;0.45;;
9186;SDS011;7273;48.902;9.410;2024-03-08T05:17:34;0.75;;;0.73;;
9186;SDS011;7273;48.902;9.410;2024-03-08T05:19:59;5.33;;;2.80;;
9186;SDS011;7273;48.902;9.410;2024-03-08T05:22:25;0.98;;;0.85;;
9186;SDS011;7273;48.902;9.410;2024-03-08T05:24:51;1.30;;;1.20;;
9186;SDS011;7273;48.902;9.410;2024-03-08T05:27:16;8.55;;;2.80;;
9186;SDS011;7273;48.902;9.410;2024-03-08T05:29:42;1.45;;;1.15;;
9186;SDS011;7273;48.902;9.410;2024-03-08T05:32:07;0.25;;;0.25;;
9186;SDS011;7273;48.902;9.410;2024-03-08T05:34:32;1.08;;;0.95;;
9186;SDS011;7273;48.902;9.410;2024-03-08T05:36:58;0.50;;;0.50;;
9186;SDS011;7273;48.902;9.410;2024-03-08T05:39:25;1.10;;;0.77;;
9186;SDS011;7273;48.902;9.410;2024-03-08T05:41:50;0.98;;;0.80;;
9186;SDS011;7273;48.902;9.410;2024-03-08T05:44:16;0.47;;;0.47;;
9186;SDS011;7273;48.902;9.410;2024-03-08T05:46:42;3.47;;;2.08;;
9186;SDS011;7273;48.902;9.410;2024-03-08T05:49:08;1.17;;;0.40;;
9186;SDS011;7273;48.902;9.410;2024-03-08T05:51:35;1.58;;;0.68;;
9186;SDS011;7273;48.902;9.410;2024-03-08T05:54:06;4.15;;;2.75;;
9186;SDS011;7273;48.902;9.410;2024-03-08T05:56:34;4.40;;;1.15;;
9186;SDS011;7273;48.902;9.410;2024-03-08T05:59:00;8.70;;;1.23;;
9186;SDS011;7273;48.902;9.410;2024-03-08T06:01:27;1.55;;;0.88;;
9186;SDS011;7273;48.902;9.410;2024-03-08T06:03:53;4.93;;;1.98;;
9186;SDS011;7273;48.902;9.410;2024-03-08T06:06:21;2.60;;;0.70;;
9186;SDS011;7273;48.902;9.410;2024-03-08T06:08:46;5.30;;;1.25;;
9186;SDS011;7273;48.902;9.410;2024-03-08T06:11:14;1.95;;;1.02;;
9186;SDS011;7273;48.902;9.410;2024-03-08T06:13:39;0.70;;;0.47;;
9186;SDS011;7273;48.902;9.410;2024-03-08T06:16:05;2.17;;;1.13;;
9186;SDS011;7273;48.902;9.410;2024-03-08T06:18:33;1.67;;;1.38;;
9186;SDS011;7273;48.902;9.410;2024-03-08T06:21:07;1.83;;;1.55;;
9186;SDS011;7273;48.902;9.410;2024-03-08T06:23:37;2.20;;;2.00;;
9186;SDS011;7273;48.902;9.410;2024-03-08T06:26:05;3.55;;;1.08;;
9186;SDS011;7273;48.902;9.410;2024-03-08T06:28:31;5.30;;;1.75;;
9186;SDS011;7273;48.902;9.410;2024-03-08T06:31:02;0.75;;;0.68;;
9186;SDS011;7273;48.902;9.410;2024-03-08T06:33:28;0.52;;;0.22;;
9186;SDS011;7273;48.902;9.410;2024-03-08T06:35:54;1.02;;;0.80;;
9186;SDS011;7273;48.902;9.410;2024-03-08T06:40:49;1.02;;;0.63;;
9186;SDS011;7273;48.902;9.410;2024-03-08T06:43:16;1.55;;;0.98;;
9186;SDS011;7273;48.902;9.410;2024-03-08T06:45:42;0.68;;;0.43;;
9186;SDS011;7273;48.902;9.410;2024-03-08T06:48:13;2.42;;;1.48;;
9186;SDS011;7273;48.902;9.410;2024-03-08T06:50:39;0.70;;;0.68;;
9186;SDS011;7273;48.902;9.410;2024-03-08T06:53:05;2.25;;;1.45;;
9186;SDS011;7273;48.902;9.410;2024-03-08T06:55:31;2.95;;;0.80;;
9186;SDS011;7273;48.902;9.410;2024-03-08T06:57:58;8.27;;;0.95;;
9186;SDS011;7273;48.902;9.410;2024-03-08T07:00:23;1.52;;;1.30;;
9186;SDS011;7273;48.902;9.410;2024-03-08T07:02:52;1.00;;;0.85;;
9186;SDS011;7273;48.902;9.410;2024-03-08T07:05:18;2.13;;;1.65;;
9186;SDS011;7273;48.902;9.410;2024-03-08T07:07:44;1.20;;;1.08;;
9186;SDS011;7273;48.902;9.410;2024-03-08T07:10:09;1.88;;;0.77;;
9186;SDS011;7273;48.902;9.410;2024-03-08T07:12:40;0.70;;;0.70;;
9186;SDS011;7273;48.902;9.410;2024-03-08T07:15:06;37.83;;;2.45;;
9186;SDS011;7273;48.902;9.410;2024-03-08T07:17:31;2.53;;;0.65;;
9186;SDS011;7273;48.902;9.410;2024-03-08T07:19:59;2.63;;;2.00;;
9186;SDS011;7273;48.902;9.410;2024-03-08T07:22:31;2.28;;;1.95;;
9186;SDS011;7273;48.902;9.410;2024-03-08T07:24:56;1.63;;;1.13;;
9186;SDS011;7273;48.902;9.410;2024-03-08T07:27:42;1.48;;;1.23;;
9186;SDS011;7273;48.902;9.410;2024-03-08T07:30:07;0.90;;;0.77;;
9186;SDS011;7273;48.902;9.410;2024-03-08T07:32:35;2.88;;;1.90;;
9186;SDS011;7273;48.902;9.410;2024-03-08T07:35:00;1.38;;;1.02;;
9186;SDS011;7273;48.902;9.410;2024-03-08T07:37:27;1.75;;;1.42;;
9186;SDS011;7273;48.902;9.410;2024-03-08T07:39:52;1.33;;;1.05;;
9186;SDS011;7273;48.902;9.410;2024-03-08T07:42:18;4.13;;;0.82;;
9186;SDS011;7273;48.902;9.410;2024-03-08T07:44:44;0.70;;;0.60;;
9186;SDS011;7273;48.902;9.410;2024-03-08T07:47:12;1.98;;;1.85;;
9186;SDS011;7273;48.902;9.410;2024-03-08T07:49:37;0.83;;;0.60;;
9186;SDS011;7273;48.902;9.410;2024-03-08T07:52:06;0.97;;;0.87;;
9186;SDS011;7273;48.902;9.410;2024-03-08T07:54:32;2.33;;;1.13;;
9186;SDS011;7273;48.902;9.410;2024-03-08T07:56:59;0.98;;;0.90;;
9186;SDS011;7273;48.902;9.410;2024-03-08T07:59:24;4.37;;;1.67;;
9186;SDS011;7273;48.902;9.410;2024-03-08T08:01:49;4.65;;;2.45;;
9186;SDS011;7273;48.902;9.410;2024-03-08T08:04:15;0.93;;;0.73;;
9186;SDS011;7273;48.902;9.410;2024-03-08T08:06:43;2.33;;;1.15;;
9186;SDS011;7273;48.902;9.410;2024-03-08T08:09:08;1.75;;;1.05;;
9186;SDS011;7273;48.902;9.410;2024-03-08T08:11:40;2.65;;;1.60;;
9186;SDS011;7273;48.902;9.410;2024-03-08T08:14:09;0.68;;;0.55;;
9186;SDS011;7273;48.902;9.410;2024-03-08T08:16:35;5.40;;;1.15;;
9186;SDS011;7273;48.902;9.410;2024-03-08T08:19:02;0.63;;;0.35;;
9186;SDS011;7273;48.902;9.410;2024-03-08T08:21:32;0.80;;;0.73;;
9186;SDS011;7273;48.902;9.410;2024-03-08T08:24:02;0.45;;;0.32;;
9186;SDS011;7273;48.902;9.410;2024-03-08T08:26:30;1.83;;;0.98;;
9186;SDS011;7273;48.902;9.410;2024-03-08T08:28:55;0.45;;;0.43;;
9186;SDS011;7273;48.902;9.410;2024-03-08T08:31:21;4.30;;;1.45;;
9186;SDS011;7273;48.902;9.410;2024-03-08T08:33:47;0.50;;;0.40;;
9186;SDS011;7273;48.902;9.410;2024-03-08T08:36:14;4.53;;;1.58;;
9186;SDS011;7273;48.902;9.410;2024-03-08T08:38:39;2.63;;;1.08;;
9186;SDS011;7273;48.902;9.410;2024-03-08T08:41:05;0.90;;;0.68;;
9186;SDS011;7273;48.902;9.410;2024-03-08T08:43:31;2.20;;;1.23;;
9186;SDS011;7273;48.902;9.410;2024-03-08T08:45:58;4.25;;;1.80;;
9186;SDS011;7273;48.902;9.410;2024-03-08T08:48:24;1.02;;;0.90;;
9186;SDS011;7273;48.902;9.410;2024-03-08T08:50:50;1.92;;;0.82;;
9186;SDS011;7273;48.902;9.410;2024-03-08T08:53:17;2.75;;;1.45;;
9186;SDS011;7273;48.902;9.410;2024-03-08T08:55:43;2.05;;;1.52;;
9186;SDS011;7273;48.902;9.410;2024-03-08T08:58:10;4.32;;;0.68;;
9186;SDS011;7273;48.902;9.410;2024-03-08T09:00:36;7.05;;;1.45;;
9186;SDS011;7273;48.902;9.410;2024-03-08T09:03:02;2.92;;;1.38;;
9186;SDS011;7273;48.902;9.410;2024-03-08T09:05:28;0.75;;;0.73;;
9186;SDS011;7273;48.902;9.410;2024-03-08T09:07:53;0.65;;;0.47;;
9186;SDS011;7273;48.902;9.410;2024-03-08T09:10:19;3.08;;;0.77;;
9186;SDS011;7273;48.902;9.410;2024-03-08T09:12:44;0.17;;;0.17;;
9186;SDS011;7273;48.902;9.410;2024-03-08T09:15:10;2.08;;;1.48;;
9186;SDS011;7273;48.902;9.410;2024-03-08T09:17:38;3.70;;;0.88;;
9186;SDS011;7273;48.902;9.410;2024-03-08T09:20:05;3.35;;;1.73;;
9186;SDS011;7273;48.902;9.410;2024-03-08T09:22:32;0.47;;;0.47;;
9186;SDS011;7273;48.902;9.410;2024-03-08T09:24:57;2.40;;;1.33;;
9186;SDS011;7273;48.902;9.410;2024-03-08T09:27:22;3.22;;;0.88;;
9186;SDS011;7273;48.902;9.410;2024-03-08T09:29:48;3.30;;;1.45;;
9186;SDS011;7273;48.902;9.410;2024-03-08T09:32:14;0.63;;;0.50;;
9186;SDS011;7273;48.902;9.410;2024-03-08T09:34:39;1.42;;;1.13;;
9186;SDS011;7273;48.902;9.410;2024-03-08T09:37:05;3.08;;;1.30;;
9186;SDS011;7273;48.902;9.410;2024-03-08T09:39:30;2.30;;;1.48;;
9186;SDS011;7273;48.902;9.410;2024-03-08T09:41:56;2.38;;;1.25;;
9186;SDS011;7273;48.902;9.410;2024-03-08T09:44:22;5.33;;;1.03;;
9186;SDS011;7273;48.902;9.410;2024-03-08T09:46:48;1.08;;;0.75;;
9186;SDS011;7273;48.902;9.410;2024-03-08T09:49:16;3.95;;;1.90;;
9186;SDS011;7273;48.902;9.410;2024-03-08T09:51:42;5.22;;;1.20;;
9186;SDS011;7273;48.902;9.410;2024-03-08T09:54:07;1.63;;;0.98;;
9186;SDS011;7273;48.902;9.410;2024-03-08T09:56:33;0.98;;;0.60;;
9186;SDS011;7273;48.902;9.410;2024-03-08T09:59:00;3.45;;;1.23;;
9186;SDS011;7273;48.902;9.410;2024-03-08T10:01:44;2.35;;;1.15;;
9186;SDS011;7273;48.902;9.410;2024-03-08T10:04:10;1.48;;;1.02;;
9186;SDS011;7273;48.902;9.410;2024-03-08T10:06:37;1.63;;;1.33;;
9186;SDS011;7273;48.902;9.410;2024-03-08T10:09:02;2.53;;;1.83;;
9186;SDS011;7273;48.902;9.410;2024-03-08T10:11:28;6.07;;;2.38;;
9186;SDS011;7273;48.902;9.410;2024-03-08T10:13:53;1.30;;;0.77;;
9186;SDS011;7273;48.902;9.410;2024-03-08T10:16:19;1.98;;;1.10;;
9186;SDS011;7273;48.902;9.410;2024-03-08T10:18:45;1.08;;;1.00;;
9186;SDS011;7273;48.902;9.410;2024-03-08T10:21:11;1.45;;;1.08;;
9186;SDS011;7273;48.902;9.410;2024-03-08T10:28:44;1.38;;;0.77;;
9186;SDS011;7273;48.902;9.410;2024-03-08T10:31:11;12.48;;;1.95;;
9186;SDS011;7273;48.902;9.410;2024-03-08T10:33:37;1.98;;;1.20;;
9186;SDS011;7273;48.902;9.410;2024-03-08T10:36:05;5.70;;;0.85;;
9186;SDS011;7273;48.902;9.410;2024-03-08T10:41:01;0.90;;;0.57;;
9186;SDS011;7273;48.902;9.410;2024-03-08T10:43:28;3.30;;;1.13;;
9186;SDS011;7273;48.902;9.410;2024-03-08T10:46:12;2.55;;;1.33;;
9186;SDS011;7273;48.902;9.410;2024-03-08T10:48:50;1.83;;;1.27;;
9186;SDS011;7273;48.902;9.410;2024-03-08T10:51:17;1.70;;;1.30;;
9186;SDS011;7273;48.902;9.410;2024-03-08T10:53:44;2.22;;;0.75;;
9186;SDS011;7273;48.902;9.410;2024-03-08T10:56:13;10.63;;;2.40;;
9186;SDS011;7273;48.902;9.410;2024-03-08T10:58:39;4.32;;;1.85;;
9186;SDS011;7273;48.902;9.410;2024-03-08T11:01:06;6.93;;;1.60;;
9186;SDS011;7273;48.902;9.410;2024-03-08T11:06:13;7.55;;;1.88;;
9186;SDS011;7273;48.902;9.410;2024-03-08T11:08:40;5.30;;;2.47;;
9186;SDS011;7273;48.902;9.410;2024-03-08T11:11:05;2.90;;;0.68;;
9186;SDS011;7273;48.902;9.410;2024-03-08T11:13:47;4.50;;;2.95;;
9186;SDS011;7273;48.902;9.410;2024-03-08T11:16:36;1.13;;;1.02;;
9186;SDS011;7273;48.902;9.410;2024-03-08T11:21:36;5.07;;;2.00;;
9186;SDS011;7273;48.902;9.410;2024-03-08T11:24:11;5.50;;;1.85;;
9186;SDS011;7273;48.902;9.410;2024-03-08T11:26:38;7.28;;;2.47;;
9186;SDS011;7273;48.902;9.410;2024-03-08T11:32:09;3.03;;;1.60;;
9186;SDS011;7273;48.902;9.410;2024-03-08T11:34:35;8.60;;;3.92;;
9186;SDS011;7273;48.902;9.410;2024-03-08T11:37:03;9.07;;;2.80;;
9186;SDS011;7273;48.902;9.410;2024-03-08T11:39:30;13.43;;;3.92;;
9186;SDS011;7273;48.902;9.410;2024-03-08T11:41:56;11.02;;;3.42;;
9186;SDS011;7273;48.902;9.410;2024-03-08T11:44:21;9.30;;;3.67;;
9186;SDS011;7273;48.902;9.410;2024-03-08T11:46:47;10.63;;;3.50;;
9186;SDS011;7273;48.902;9.410;2024-03-08T11:49:15;8.35;;;3.67;;
9186;SDS011;7273;48.902;9.410;2024-03-08T11:51:41;10.30;;;3.85;;
9186;SDS011;7273;48.902;9.410;2024-03-08T11:54:11;10.85;;;3.85;;
9186;SDS011;7273;48.902;9.410;2024-03-08T11:56:40;9.15;;;3.60;;
9186;SDS011;7273;48.902;9.410;2024-03-08T11:59:10;10.07;;;3.70;;
9186;SDS011;7273;48.902;9.410;2024-03-08T12:01:37;10.38;;;3.65;;
9186;SDS011;7273;48.902;9.410;2024-03-08T12:04:03;9.00;;;3.65;;
9186;SDS011;7273;48.902;9.410;2024-03-08T12:06:37;8.90;;;3.72;;
9186;SDS011;7273;48.902;9.410;2024-03-08T12:09:10;13.63;;;3.60;;
9186;SDS011;7273;48.902;9.410;2024-03-08T12:11:36;9.75;;;3.25;;
9186;SDS011;7273;48.902;9.410;2024-03-08T12:14:02;9.82;;;4.47;;
9186;SDS011;7273;48.902;9.410;2024-03-08T12:16:28;6.70;;;2.90;;
9186;SDS011;7273;48.902;9.410;2024-03-08T12:18:54;5.93;;;2.67;;
9186;SDS011;7273;48.902;9.410;2024-03-08T12:21:20;11.45;;;2.60;;
9186;SDS011;7273;48.902;9.410;2024-03-08T12:23:47;7.82;;;2.95;;
9186;SDS011;7273;48.902;9.410;2024-03-08T12:26:24;6.32;;;2.53;;
9186;SDS011;7273;48.902;9.410;2024-03-08T12:28:51;5.95;;;2.72;;
9186;SDS011;7273;48.902;9.410;2024-03-08T12:31:17;6.10;;;2.53;;
9186;SDS011;7273;48.902;9.410;2024-03-08T12:33:49;7.40;;;2.53;;
9186;SDS011;7273;48.902;9.410;2024-03-08T12:36:14;5.43;;;2.90;;
9186;SDS011;7273;48.902;9.410;2024-03-08T12:38:44;8.02;;;3.67;;
9186;SDS011;7273;48.902;9.410;2024-03-08T12:41:16;4.45;;;1.85;;
9186;SDS011;7273;48.902;9.410;2024-03-08T12:43:43;2.85;;;2.03;;
9186;SDS011;7273;48.902;9.410;2024-03-08T12:46:19;5.95;;;3.00;;
9186;SDS011;7273;48.902;9.410;2024-03-08T12:48:45;4.80;;;2.15;;
9186;SDS011;7273;48.902;9.410;2024-03-08T12:53:41;4.45;;;2.33;;
9186;SDS011;7273;48.902;9.410;2024-03-08T12:58:53;3.95;;;1.73;;
9186;SDS011;7273;48.902;9.410;2024-03-08T13:01:18;7.28;;;2.58;;
9186;SDS011;7273;48.902;9.410;2024-03-08T13:03:44;3.83;;;2.65;;
9186;SDS011;7273;48.902;9.410;2024-03-08T13:06:09;7.72;;;3.35;;
9186;SDS011;7273;48.902;9.410;2024-03-08T13:08:35;6.53;;;1.98;;
9186;SDS011;7273;48.902;9.410;2024-03-08T13:11:04;9.57;;;3.47;;
9186;SDS011;7273;48.902;9.410;2024-03-08T13:13:30;4.40;;;2.13;;
9186;SDS011;7273;48.902;9.410;2024-03-08T13:15:55;3.80;;;1.60;;
9186;SDS011;7273;48.902;9.410;2024-03-08T13:18:21;5.38;;;2.30;;
9186;SDS011;7273;48.902;9.410;2024-03-08T13:20:47;9.65;;;3.35;;
9186;SDS011;7273;48.902;9.410;2024-03-08T13:23:16;2.20;;;1.67;;
9186;SDS011;7273;48.902;9.410;2024-03-08T13:25:42;13.23;;;4.00;;
9186;SDS011;7273;48.902;9.410;2024-03-08T13:28:08;8.90;;;1.85;;
9186;SDS011;7273;48.902;9.410;2024-03-08T13:30:33;4.13;;;2.13;;
9186;SDS011;7273;48.902;9.410;2024-03-08T13:33:00;5.70;;;2.53;;
9186;SDS011;7273;48.902;9.410;2024-03-08T13:35:26;7.20;;;3.33;;
9186;SDS011;7273;48.902;9.410;2024-03-08T13:37:53;9.20;;;2.67;;
9186;SDS011;7273;48.902;9.410;2024-03-08T13:40:18;3.33;;;1.67;;
9186;SDS011;7273;48.902;9.410;2024-03-08T13:42:48;7.05;;;2.70;;
9186;SDS011;7273;48.902;9.410;2024-03-08T13:45:14;2.85;;;1.80;;
9186;SDS011;7273;48.902;9.410;2024-03-08T13:47:43;7.30;;;2.78;;
9186;SDS011;7273;48.902;9.410;2024-03-08T13:50:09;8.55;;;2.67;;
9186;SDS011;7273;48.902;9.410;2024-03-08T13:52:41;3.10;;;2.22;;
9186;SDS011;7273;48.902;9.410;2024-03-08T13:55:08;2.13;;;1.42;;
9186;SDS011;7273;48.902;9.410;2024-03-08T13:57:34;6.50;;;2.63;;
9186;SDS011;7273;48.902;9.410;2024-03-08T13:59:59;9.88;;;3.03;;
9186;SDS011;7273;48.902;9.410;2024-03-08T14:02:25;3.53;;;1.63;;
9186;SDS011;7273;48.902;9.410;2024-03-08T14:04:53;5.10;;;1.65;;
9186;SDS011;7273;48.902;9.410;2024-03-08T14:07:19;2.40;;;1.58;;
9186;SDS011;7273;48.902;9.410;2024-03-08T14:12:14;4.68;;;2.40;;
9186;SDS011;7273;48.902;9.410;2024-03-08T14:14:42;5.45;;;2.30;;
9186;SDS011;7273;48.902;9.410;2024-03-08T14:17:09;4.50;;;2.55;;
9186;SDS011;7273;48.902;9.410;2024-03-08T14:19:36;4.85;;;2.63;;
9186;SDS011;7273;48.902;9.410;2024-03-08T14:22:04;5.28;;;2.58;;
9186;SDS011;7273;48.902;9.410;2024-03-08T14:24:30;3.17;;;2.53;;
9186;SDS011;7273;48.902;9.410;2024-03-08T14:26:56;3.50;;;1.77;;
9186;SDS011;7273;48.902;9.410;2024-03-08T14:29:24;4.53;;;2.15;;
9186;SDS011;7273;48.902;9.410;2024-03-08T14:31:53;1.52;;;0.98;;
9186;SDS011;7273;48.902;9.410;2024-03-08T14:34:22;7.45;;;2.40;;
9186;SDS011;7273;48.902;9.410;2024-03-08T14:36:51;3.90;;;1.67;;
9186;SDS011;7273;48.902;9.410;2024-03-08T14:39:16;2.90;;;1.50;;
9186;SDS011;7273;48.902;9.410;2024-03-08T14:41:46;12.32;;;3.83;;
9186;SDS011;7273;48.902;9.410;2024-03-08T14:44:22;5.03;;;1.60;;
9186;SDS011;7273;48.902;9.410;2024-03-08T14:46:57;5.63;;;2.88;;
9186;SDS011;7273;48.902;9.410;2024-03-08T14:49:23;5.22;;;2.35;;
9186;SDS011;7273;48.902;9.410;2024-03-08T14:51:51;4.47;;;0.93;;
9186;SDS011;7273;48.902;9.410;2024-03-08T14:54:16;6.28;;;2.55;;
9186;SDS011;7273;48.902;9.410;2024-03-08T14:56:45;3.13;;;2.08;;
9186;SDS011;7273;48.902;9.410;2024-03-08T14:59:11;4.10;;;1.90;;
9186;SDS011;7273;48.902;9.410;2024-03-08T15:01:36;9.35;;;1.92;;
9186;SDS011;7273;48.902;9.410;2024-03-08T15:04:02;3.45;;;1.98;;
9186;SDS011;7273;48.902;9.410;2024-03-08T15:06:40;6.93;;;2.15;;
9186;SDS011;7273;48.902;9.410;2024-03-08T15:09:07;7.13;;;2.25;;
9186;SDS011;7273;48.902;9.410;2024-03-08T15:11:40;2.92;;;1.58;;
9186;SDS011;7273;48.902;9.410;2024-03-08T15:14:07;4.38;;;1.85;;
9186;SDS011;7273;48.902;9.410;2024-03-08T15:16:36;4.10;;;1.88;;
9186;SDS011;7273;48.902;9.410;2024-03-08T15:19:08;3.97;;;1.92;;
9186;SDS011;7273;48.902;9.410;2024-03-08T15:21:34;3.13;;;1.52;;
9186;SDS011;7273;48.902;9.410;2024-03-08T15:24:00;8.55;;;1.75;;
9186;SDS011;7273;48.902;9.410;2024-03-08T15:26:27;7.78;;;1.65;;
9186;SDS011;7273;48.902;9.410;2024-03-08T15:28:55;7.88;;;2.17;;
9186;SDS011;7273;48.902;9.410;2024-03-08T15:31:21;2.50;;;1.00;;
9186;SDS011;7273;48.902;9.410;2024-03-08T15:33:49;2.60;;;1.52;;
9186;SDS011;7273;48.902;9.410;2024-03-08T15:36:17;3.78;;;2.08;;
9186;SDS011;7273;48.902;9.410;2024-03-08T15:38:46;3.67;;;1.40;;